sensor_id;sensor_type;location;lat;lon;timestamp;P1;durP1;ratioP1;P2;durP2;ratioP2
14984;SDS011;7588;62.368;25.902;2023-03-23T00:02:27;1.60;;;1.50;;
14984;SDS011;7588;62.368;25.902;2023-03-23T00:04:53;1.40;;;1.40;;
14984;SDS011;7588;62.368;25.902;2023-03-23T00:07:20;1.33;;;1.30;;
14984;SDS011;7588;62.368;25.902;2023-03-23T00:09:50;1.83;;;1.73;;
14984;SDS011;7588;62.368;25.902;2023-03-23T00:12:19;1.80;;;1.70;;
14984;SDS011;7588;62.368;25.902;2023-03-23T00:14:46;1.70;;;1.60;;
14984;SDS011;7588;62.368;25.902;2023-03-23T00:17:12;2.20;;;2.10;;
14984;SDS011;7588;62.368;25.902;2023-03-23T00:19:39;2.00;;;1.90;;
14984;SDS011;7588;62.368;25.902;2023-03-23T00:22:14;2.40;;;2.30;;
14984;SDS011;7588;62.368;25.902;2023-03-23T00:24:46;2.00;;;1.90;;
14984;SDS011;7588;62.368;25.902;2023-03-23T00:27:13;1.70;;;1.60;;
14984;SDS011;7588;62.368;25.902;2023-03-23T00:29:39;1.70;;;1.60;;
14984;SDS011;7588;62.368;25.902;2023-03-23T00:32:06;1.80;;;1.70;;
14984;SDS011;7588;62.368;25.902;2023-03-23T00:34:41;1.70;;;1.60;;
14984;SDS011;7588;62.368;25.902;2023-03-23T00:37:09;2.17;;;2.07;;
14984;SDS011;7588;62.368;25.902;2023-03-23T00:39:35;1.93;;;1.83;;
14984;SDS011;7588;62.368;25.902;2023-03-23T00:42:03;1.70;;;1.60;;
14984;SDS011;7588;62.368;25.902;2023-03-23T00:44:30;2.10;;;2.00;;
14984;SDS011;7588;62.368;25.902;2023-03-23T00:46:58;1.67;;;1.57;;
14984;SDS011;7588;62.368;25.902;2023-03-23T00:49:24;1.87;;;1.77;;
14984;SDS011;7588;62.368;25.902;2023-03-23T00:51:52;2.13;;;2.03;;
14984;SDS011;7588;62.368;25.902;2023-03-23T00:54:18;1.90;;;1.80;;
14984;SDS011;7588;62.368;25.902;2023-03-23T00:56:45;2.20;;;2.10;;
14984;SDS011;7588;62.368;25.902;2023-03-23T00:59:11;1.90;;;1.80;;
14984;SDS011;7588;62.368;25.902;2023-03-23T01:01:37;2.70;;;2.10;;
14984;SDS011;7588;62.368;25.902;2023-03-23T01:04:03;1.83;;;1.73;;
14984;SDS011;7588;62.368;25.902;2023-03-23T01:06:31;2.00;;;1.90;;
14984;SDS011;7588;62.368;25.902;2023-03-23T01:09:04;1.97;;;1.87;;
14984;SDS011;7588;62.368;25.902;2023-03-23T01:11:34;2.13;;;2.03;;
14984;SDS011;7588;62.368;25.902;2023-03-23T01:14:00;2.00;;;1.90;;
14984;SDS011;7588;62.368;25.902;2023-03-23T01:16:26;2.20;;;2.10;;
14984;SDS011;7588;62.368;25.902;2023-03-23T01:18:52;2.77;;;2.57;;
14984;SDS011;7588;62.368;25.902;2023-03-23T01:21:18;2.33;;;2.23;;
14984;SDS011;7588;62.368;25.902;2023-03-23T01:23:45;2.67;;;2.47;;
14984;SDS011;7588;62.368;25.902;2023-03-23T01:26:21;2.93;;;2.73;;
14984;SDS011;7588;62.368;25.902;2023-03-23T01:28:49;2.50;;;2.30;;
14984;SDS011;7588;62.368;25.902;2023-03-23T01:31:16;2.60;;;2.40;;
14984;SDS011;7588;62.368;25.902;2023-03-23T01:33:43;2.43;;;2.23;;
14984;SDS011;7588;62.368;25.902;2023-03-23T01:36:13;2.57;;;2.33;;
14984;SDS011;7588;62.368;25.902;2023-03-23T01:38:41;2.93;;;2.67;;
14984;SDS011;7588;62.368;25.902;2023-03-23T01:41:08;3.00;;;2.80;;
14984;SDS011;7588;62.368;25.902;2023-03-23T01:43:35;3.30;;;3.00;;
14984;SDS011;7588;62.368;25.902;2023-03-23T01:46:01;3.57;;;3.27;;
14984;SDS011;7588;62.368;25.902;2023-03-23T01:51:30;3.80;;;3.50;;
14984;SDS011;7588;62.368;25.902;2023-03-23T01:53:59;3.80;;;3.50;;
14984;SDS011;7588;62.368;25.902;2023-03-23T01:56:29;3.43;;;3.13;;
14984;SDS011;7588;62.368;25.902;2023-03-23T01:59:03;2.97;;;2.77;;
14984;SDS011;7588;62.368;25.902;2023-03-23T02:01:29;3.60;;;3.30;;
14984;SDS011;7588;62.368;25.902;2023-03-23T02:03:55;3.63;;;3.33;;
14984;SDS011;7588;62.368;25.902;2023-03-23T02:06:23;3.80;;;3.47;;
14984;SDS011;7588;62.368;25.902;2023-03-23T02:08:50;3.93;;;3.53;;
14984;SDS011;7588;62.368;25.902;2023-03-23T02:11:18;3.43;;;3.13;;
14984;SDS011;7588;62.368;25.902;2023-03-23T02:13:45;5.07;;;4.23;;
14984;SDS011;7588;62.368;25.902;2023-03-23T02:36:12;3.40;;;3.10;;
14984;SDS011;7588;62.368;25.902;2023-03-23T02:38:47;3.90;;;3.60;;
14984;SDS011;7588;62.368;25.902;2023-03-23T02:41:36;3.20;;;3.00;;
14984;SDS011;7588;62.368;25.902;2023-03-23T02:44:07;4.10;;;3.70;;
14984;SDS011;7588;62.368;25.902;2023-03-23T02:46:35;3.30;;;3.10;;
14984;SDS011;7588;62.368;25.902;2023-03-23T02:49:02;3.47;;;3.23;;
14984;SDS011;7588;62.368;25.902;2023-03-23T02:51:30;3.20;;;3.00;;
14984;SDS011;7588;62.368;25.902;2023-03-23T02:53:59;3.50;;;3.20;;
14984;SDS011;7588;62.368;25.902;2023-03-23T02:56:25;3.07;;;2.87;;
14984;SDS011;7588;62.368;25.902;2023-03-23T02:58:53;2.87;;;2.67;;
14984;SDS011;7588;62.368;25.902;2023-03-23T03:03:57;3.00;;;2.80;;
14984;SDS011;7588;62.368;25.902;2023-03-23T03:12:06;2.90;;;2.70;;
14984;SDS011;7588;62.368;25.902;2023-03-23T03:14:46;2.70;;;2.50;;
14984;SDS011;7588;62.368;25.902;2023-03-23T03:17:24;2.77;;;2.57;;
14984;SDS011;7588;62.368;25.902;2023-03-23T03:19:56;2.73;;;2.53;;
14984;SDS011;7588;62.368;25.902;2023-03-23T03:22:31;2.40;;;2.20;;
14984;SDS011;7588;62.368;25.902;2023-03-23T03:25:02;2.43;;;2.30;;
14984;SDS011;7588;62.368;25.902;2023-03-23T03:27:29;2.70;;;2.50;;
14984;SDS011;7588;62.368;25.902;2023-03-23T03:29:58;2.40;;;2.30;;
14984;SDS011;7588;62.368;25.902;2023-03-23T03:32:29;2.10;;;2.00;;
14984;SDS011;7588;62.368;25.902;2023-03-23T03:35:01;2.27;;;2.17;;
14984;SDS011;7588;62.368;25.902;2023-03-23T03:37:31;2.07;;;1.97;;
14984;SDS011;7588;62.368;25.902;2023-03-23T03:40:03;2.13;;;2.03;;
14984;SDS011;7588;62.368;25.902;2023-03-23T03:42:40;2.17;;;2.07;;
14984;SDS011;7588;62.368;25.902;2023-03-23T03:45:08;2.27;;;2.17;;
14984;SDS011;7588;62.368;25.902;2023-03-23T03:47:35;2.10;;;2.00;;
14984;SDS011;7588;62.368;25.902;2023-03-23T03:50:01;1.87;;;1.77;;
14984;SDS011;7588;62.368;25.902;2023-03-23T03:52:27;1.80;;;1.70;;
14984;SDS011;7588;62.368;25.902;2023-03-23T03:54:52;2.10;;;2.00;;
14984;SDS011;7588;62.368;25.902;2023-03-23T03:57:18;2.37;;;2.27;;
14984;SDS011;7588;62.368;25.902;2023-03-23T03:59:44;2.10;;;1.97;;
14984;SDS011;7588;62.368;25.902;2023-03-23T04:02:10;2.07;;;1.90;;
14984;SDS011;7588;62.368;25.902;2023-03-23T04:04:38;1.60;;;1.50;;
14984;SDS011;7588;62.368;25.902;2023-03-23T04:07:06;1.80;;;1.70;;
14984;SDS011;7588;62.368;25.902;2023-03-23T04:09:32;1.97;;;1.87;;
14984;SDS011;7588;62.368;25.902;2023-03-23T04:11:58;1.80;;;1.70;;
14984;SDS011;7588;62.368;25.902;2023-03-23T04:14:23;1.80;;;1.70;;
14984;SDS011;7588;62.368;25.902;2023-03-23T04:16:49;1.70;;;1.60;;
14984;SDS011;7588;62.368;25.902;2023-03-23T04:19:21;1.97;;;1.73;;
14984;SDS011;7588;62.368;25.902;2023-03-23T04:21:47;2.00;;;1.80;;
14984;SDS011;7588;62.368;25.902;2023-03-23T04:24:14;1.80;;;1.70;;
14984;SDS011;7588;62.368;25.902;2023-03-23T04:26:40;1.77;;;1.67;;
14984;SDS011;7588;62.368;25.902;2023-03-23T04:29:07;1.90;;;1.80;;
14984;SDS011;7588;62.368;25.902;2023-03-23T04:31:33;2.03;;;1.93;;
14984;SDS011;7588;62.368;25.902;2023-03-23T04:34:00;1.73;;;1.63;;
14984;SDS011;7588;62.368;25.902;2023-03-23T04:36:26;2.10;;;2.00;;
14984;SDS011;7588;62.368;25.902;2023-03-23T04:38:54;1.60;;;1.50;;
14984;SDS011;7588;62.368;25.902;2023-03-23T04:41:21;2.07;;;1.57;;
14984;SDS011;7588;62.368;25.902;2023-03-23T04:43:47;1.60;;;1.60;;
14984;SDS011;7588;62.368;25.902;2023-03-23T04:46:17;1.20;;;1.20;;
14984;SDS011;7588;62.368;25.902;2023-03-23T04:48:44;1.40;;;1.40;;
14984;SDS011;7588;62.368;25.902;2023-03-23T04:51:10;1.20;;;1.20;;
14984;SDS011;7588;62.368;25.902;2023-03-23T04:53:37;1.20;;;1.20;;
14984;SDS011;7588;62.368;25.902;2023-03-23T04:56:03;1.30;;;1.20;;
14984;SDS011;7588;62.368;25.902;2023-03-23T04:58:29;1.03;;;1.03;;
14984;SDS011;7588;62.368;25.902;2023-03-23T05:00:58;1.20;;;1.20;;
14984;SDS011;7588;62.368;25.902;2023-03-23T05:03:25;1.23;;;1.23;;
14984;SDS011;7588;62.368;25.902;2023-03-23T05:05:52;1.20;;;1.20;;
14984;SDS011;7588;62.368;25.902;2023-03-23T05:08:24;2.60;;;1.40;;
14984;SDS011;7588;62.368;25.902;2023-03-23T05:10:53;1.30;;;1.20;;
14984;SDS011;7588;62.368;25.902;2023-03-23T05:13:20;1.10;;;1.10;;
14984;SDS011;7588;62.368;25.902;2023-03-23T05:15:47;1.20;;;1.20;;
14984;SDS011;7588;62.368;25.902;2023-03-23T05:18:13;1.17;;;1.17;;
14984;SDS011;7588;62.368;25.902;2023-03-23T05:20:39;1.27;;;1.13;;
14984;SDS011;7588;62.368;25.902;2023-03-23T05:23:07;1.30;;;1.20;;
14984;SDS011;7588;62.368;25.902;2023-03-23T05:25:33;1.20;;;1.20;;
14984;SDS011;7588;62.368;25.902;2023-03-23T05:28:08;1.30;;;1.30;;
14984;SDS011;7588;62.368;25.902;2023-03-23T05:30:36;1.40;;;1.40;;
14984;SDS011;7588;62.368;25.902;2023-03-23T05:33:03;1.70;;;1.57;;
14984;SDS011;7588;62.368;25.902;2023-03-23T05:35:29;1.43;;;1.43;;
14984;SDS011;7588;62.368;25.902;2023-03-23T05:37:55;1.43;;;1.40;;
14984;SDS011;7588;62.368;25.902;2023-03-23T05:40:24;1.73;;;1.63;;
14984;SDS011;7588;62.368;25.902;2023-03-23T05:42:51;1.43;;;1.33;;
14984;SDS011;7588;62.368;25.902;2023-03-23T05:45:17;1.30;;;1.30;;
14984;SDS011;7588;62.368;25.902;2023-03-23T05:47:44;1.27;;;1.17;;
14984;SDS011;7588;62.368;25.902;2023-03-23T05:50:10;1.47;;;1.37;;
14984;SDS011;7588;62.368;25.902;2023-03-23T05:52:37;1.10;;;1.00;;
14984;SDS011;7588;62.368;25.902;2023-03-23T05:55:04;1.40;;;1.30;;
14984;SDS011;7588;62.368;25.902;2023-03-23T05:57:31;1.60;;;1.50;;
14984;SDS011;7588;62.368;25.902;2023-03-23T05:59:57;1.60;;;1.40;;
14984;SDS011;7588;62.368;25.902;2023-03-23T06:02:24;1.73;;;1.60;;
14984;SDS011;7588;62.368;25.902;2023-03-23T06:04:53;2.37;;;1.60;;
14984;SDS011;7588;62.368;25.902;2023-03-23T06:07:23;1.70;;;1.57;;
14984;SDS011;7588;62.368;25.902;2023-03-23T06:09:50;1.90;;;1.50;;
14984;SDS011;7588;62.368;25.902;2023-03-23T06:12:16;1.50;;;1.40;;
14984;SDS011;7588;62.368;25.902;2023-03-23T06:14:45;1.60;;;1.50;;
14984;SDS011;7588;62.368;25.902;2023-03-23T06:17:11;1.60;;;1.50;;
14984;SDS011;7588;62.368;25.902;2023-03-23T06:19:38;1.70;;;1.60;;
14984;SDS011;7588;62.368;25.902;2023-03-23T06:22:04;2.00;;;1.90;;
14984;SDS011;7588;62.368;25.902;2023-03-23T06:24:30;1.77;;;1.60;;
14984;SDS011;7588;62.368;25.902;2023-03-23T06:26:57;2.57;;;2.30;;
14984;SDS011;7588;62.368;25.902;2023-03-23T06:29:23;1.90;;;1.80;;
14984;SDS011;7588;62.368;25.902;2023-03-23T06:31:50;2.07;;;1.97;;
14984;SDS011;7588;62.368;25.902;2023-03-23T06:34:19;2.13;;;2.03;;
14984;SDS011;7588;62.368;25.902;2023-03-23T06:36:45;2.43;;;1.80;;
14984;SDS011;7588;62.368;25.902;2023-03-23T06:39:11;2.53;;;1.90;;
14984;SDS011;7588;62.368;25.902;2023-03-23T06:41:38;2.30;;;1.50;;
14984;SDS011;7588;62.368;25.902;2023-03-23T06:44:05;1.57;;;1.47;;
14984;SDS011;7588;62.368;25.902;2023-03-23T06:46:31;1.73;;;1.60;;
14984;SDS011;7588;62.368;25.902;2023-03-23T06:48:57;2.23;;;1.73;;
14984;SDS011;7588;62.368;25.902;2023-03-23T06:51:23;1.70;;;1.60;;
14984;SDS011;7588;62.368;25.902;2023-03-23T06:53:49;2.20;;;2.00;;
14984;SDS011;7588;62.368;25.902;2023-03-23T06:56:14;2.50;;;2.10;;
14984;SDS011;7588;62.368;25.902;2023-03-23T06:58:40;1.97;;;1.83;;
14984;SDS011;7588;62.368;25.902;2023-03-23T07:01:10;2.50;;;2.27;;
14984;SDS011;7588;62.368;25.902;2023-03-23T07:03:36;1.70;;;1.40;;
14984;SDS011;7588;62.368;25.902;2023-03-23T07:06:02;2.23;;;1.57;;
14984;SDS011;7588;62.368;25.902;2023-03-23T07:08:29;2.17;;;1.60;;
14984;SDS011;7588;62.368;25.902;2023-03-23T07:10:55;2.97;;;1.60;;
14984;SDS011;7588;62.368;25.902;2023-03-23T07:13:22;3.13;;;1.90;;
14984;SDS011;7588;62.368;25.902;2023-03-23T07:15:48;4.57;;;1.70;;
14984;SDS011;7588;62.368;25.902;2023-03-23T07:18:15;2.90;;;1.80;;
14984;SDS011;7588;62.368;25.902;2023-03-23T07:20:41;4.40;;;1.80;;
14984;SDS011;7588;62.368;25.902;2023-03-23T07:23:07;2.23;;;1.70;;
14984;SDS011;7588;62.368;25.902;2023-03-23T07:25:34;2.50;;;2.00;;
14984;SDS011;7588;62.368;25.902;2023-03-23T07:28:00;4.40;;;1.60;;
14984;SDS011;7588;62.368;25.902;2023-03-23T07:30:28;7.93;;;2.33;;
14984;SDS011;7588;62.368;25.902;2023-03-23T07:32:55;3.97;;;1.87;;
14984;SDS011;7588;62.368;25.902;2023-03-23T07:35:22;5.53;;;2.23;;
14984;SDS011;7588;62.368;25.902;2023-03-23T07:37:48;4.40;;;2.10;;
14984;SDS011;7588;62.368;25.902;2023-03-23T07:40:14;7.07;;;1.63;;
14984;SDS011;7588;62.368;25.902;2023-03-23T07:42:44;4.17;;;2.10;;
14984;SDS011;7588;62.368;25.902;2023-03-23T07:45:11;3.33;;;1.83;;
14984;SDS011;7588;62.368;25.902;2023-03-23T07:47:39;5.87;;;2.70;;
14984;SDS011;7588;62.368;25.902;2023-03-23T07:50:05;4.27;;;2.33;;
14984;SDS011;7588;62.368;25.902;2023-03-23T07:52:33;4.83;;;2.10;;
14984;SDS011;7588;62.368;25.902;2023-03-23T07:55:01;5.43;;;2.20;;
14984;SDS011;7588;62.368;25.902;2023-03-23T07:57:28;2.97;;;1.50;;
14984;SDS011;7588;62.368;25.902;2023-03-23T07:59:55;4.20;;;2.17;;
14984;SDS011;7588;62.368;25.902;2023-03-23T08:02:22;5.23;;;1.83;;
14984;SDS011;7588;62.368;25.902;2023-03-23T08:04:48;3.93;;;2.20;;
14984;SDS011;7588;62.368;25.902;2023-03-23T08:07:14;4.77;;;2.60;;
14984;SDS011;7588;62.368;25.902;2023-03-23T08:09:41;2.47;;;1.73;;
14984;SDS011;7588;62.368;25.902;2023-03-23T08:12:08;2.27;;;1.90;;
14984;SDS011;7588;62.368;25.902;2023-03-23T08:14:33;5.90;;;2.00;;
14984;SDS011;7588;62.368;25.902;2023-03-23T08:16:59;3.93;;;1.90;;
14984;SDS011;7588;62.368;25.902;2023-03-23T08:19:25;5.60;;;2.53;;
14984;SDS011;7588;62.368;25.902;2023-03-23T08:21:51;2.73;;;2.30;;
14984;SDS011;7588;62.368;25.902;2023-03-23T08:24:17;4.20;;;2.17;;
14984;SDS011;7588;62.368;25.902;2023-03-23T08:26:43;3.50;;;1.63;;
14984;SDS011;7588;62.368;25.902;2023-03-23T08:29:09;6.50;;;2.13;;
14984;SDS011;7588;62.368;25.902;2023-03-23T08:31:35;4.73;;;2.00;;
14984;SDS011;7588;62.368;25.902;2023-03-23T08:34:03;3.87;;;1.90;;
14984;SDS011;7588;62.368;25.902;2023-03-23T08:36:30;2.60;;;1.67;;
14984;SDS011;7588;62.368;25.902;2023-03-23T08:38:59;4.20;;;1.77;;
14984;SDS011;7588;62.368;25.902;2023-03-23T08:41:25;6.37;;;2.07;;
14984;SDS011;7588;62.368;25.902;2023-03-23T08:43:51;2.40;;;1.80;;
14984;SDS011;7588;62.368;25.902;2023-03-23T08:46:17;2.63;;;2.07;;
14984;SDS011;7588;62.368;25.902;2023-03-23T08:48:44;3.87;;;1.80;;
14984;SDS011;7588;62.368;25.902;2023-03-23T08:51:10;3.83;;;2.77;;
14984;SDS011;7588;62.368;25.902;2023-03-23T08:53:37;3.37;;;1.70;;
14984;SDS011;7588;62.368;25.902;2023-03-23T08:56:04;5.43;;;2.00;;
14984;SDS011;7588;62.368;25.902;2023-03-23T08:58:31;4.10;;;2.10;;
14984;SDS011;7588;62.368;25.902;2023-03-23T09:00:58;3.57;;;1.97;;
14984;SDS011;7588;62.368;25.902;2023-03-23T09:03:24;6.50;;;2.43;;
14984;SDS011;7588;62.368;25.902;2023-03-23T09:05:50;4.93;;;2.33;;
14984;SDS011;7588;62.368;25.902;2023-03-23T09:08:16;3.93;;;1.77;;
14984;SDS011;7588;62.368;25.902;2023-03-23T09:10:42;3.27;;;2.10;;
14984;SDS011;7588;62.368;25.902;2023-03-23T09:13:08;3.40;;;1.87;;
14984;SDS011;7588;62.368;25.902;2023-03-23T09:15:34;7.03;;;2.70;;
14984;SDS011;7588;62.368;25.902;2023-03-23T09:17:59;3.90;;;2.07;;
14984;SDS011;7588;62.368;25.902;2023-03-23T09:20:27;6.93;;;2.30;;
14984;SDS011;7588;62.368;25.902;2023-03-23T09:22:53;5.13;;;2.70;;
14984;SDS011;7588;62.368;25.902;2023-03-23T09:25:22;5.80;;;1.90;;
14984;SDS011;7588;62.368;25.902;2023-03-23T09:27:51;2.97;;;2.03;;
14984;SDS011;7588;62.368;25.902;2023-03-23T09:30:21;4.90;;;2.10;;
14984;SDS011;7588;62.368;25.902;2023-03-23T09:32:52;6.43;;;2.63;;
14984;SDS011;7588;62.368;25.902;2023-03-23T09:35:18;6.43;;;2.70;;
14984;SDS011;7588;62.368;25.902;2023-03-23T09:37:47;5.67;;;2.47;;
14984;SDS011;7588;62.368;25.902;2023-03-23T09:40:16;4.37;;;1.83;;
14984;SDS011;7588;62.368;25.902;2023-03-23T09:42:54;3.90;;;2.03;;
14984;SDS011;7588;62.368;25.902;2023-03-23T09:45:43;5.90;;;2.20;;
14984;SDS011;7588;62.368;25.902;2023-03-23T09:54:36;5.50;;;2.30;;
14984;SDS011;7588;62.368;25.902;2023-03-23T09:57:05;3.40;;;1.80;;
14984;SDS011;7588;62.368;25.902;2023-03-23T10:02:14;3.90;;;2.00;;
14984;SDS011;7588;62.368;25.902;2023-03-23T10:04:44;4.20;;;2.23;;
14984;SDS011;7588;62.368;25.902;2023-03-23T10:07:21;3.60;;;1.67;;
14984;SDS011;7588;62.368;25.902;2023-03-23T10:09:52;4.00;;;1.80;;
14984;SDS011;7588;62.368;25.902;2023-03-23T10:12:38;6.53;;;1.97;;
14984;SDS011;7588;62.368;25.902;2023-03-23T10:20:39;4.23;;;2.23;;
14984;SDS011;7588;62.368;25.902;2023-03-23T10:26:20;4.77;;;1.60;;
14984;SDS011;7588;62.368;25.902;2023-03-23T10:28:52;4.93;;;2.27;;
14984;SDS011;7588;62.368;25.902;2023-03-23T10:31:23;6.87;;;2.30;;
14984;SDS011;7588;62.368;25.902;2023-03-23T10:33:56;3.43;;;2.20;;
14984;SDS011;7588;62.368;25.902;2023-03-23T10:41:47;5.83;;;2.50;;
14984;SDS011;7588;62.368;25.902;2023-03-23T10:44:18;4.27;;;2.20;;
14984;SDS011;7588;62.368;25.902;2023-03-23T10:47:07;5.47;;;2.73;;
14984;SDS011;7588;62.368;25.902;2023-03-23T10:52:32;6.23;;;2.50;;
14984;SDS011;7588;62.368;25.902;2023-03-23T10:57:39;7.67;;;2.17;;
14984;SDS011;7588;62.368;25.902;2023-03-23T11:02:43;4.37;;;1.93;;
14984;SDS011;7588;62.368;25.902;2023-03-23T11:05:24;3.93;;;2.13;;
14984;SDS011;7588;62.368;25.902;2023-03-23T11:08:00;5.67;;;2.53;;
14984;SDS011;7588;62.368;25.902;2023-03-23T11:10:37;5.10;;;1.90;;
14984;SDS011;7588;62.368;25.902;2023-03-23T11:13:09;6.70;;;2.23;;
14984;SDS011;7588;62.368;25.902;2023-03-23T11:15:41;4.87;;;2.07;;
14984;SDS011;7588;62.368;25.902;2023-03-23T11:18:10;5.60;;;2.20;;
14984;SDS011;7588;62.368;25.902;2023-03-23T11:20:38;10.83;;;2.30;;
14984;SDS011;7588;62.368;25.902;2023-03-23T11:28:36;5.70;;;2.23;;
14984;SDS011;7588;62.368;25.902;2023-03-23T11:31:07;5.83;;;2.17;;
14984;SDS011;7588;62.368;25.902;2023-03-23T11:36:17;5.67;;;2.00;;
14984;SDS011;7588;62.368;25.902;2023-03-23T11:38:44;3.53;;;2.43;;
14984;SDS011;7588;62.368;25.902;2023-03-23T11:41:11;2.73;;;1.67;;
14984;SDS011;7588;62.368;25.902;2023-03-23T11:43:43;2.20;;;1.83;;
14984;SDS011;7588;62.368;25.902;2023-03-23T11:49:08;3.60;;;1.80;;
14984;SDS011;7588;62.368;25.902;2023-03-23T11:52:07;3.40;;;2.00;;
14984;SDS011;7588;62.368;25.902;2023-03-23T11:55:19;5.13;;;1.97;;
14984;SDS011;7588;62.368;25.902;2023-03-23T11:57:49;3.13;;;2.00;;
14984;SDS011;7588;62.368;25.902;2023-03-23T12:00:18;3.00;;;1.67;;
14984;SDS011;7588;62.368;25.902;2023-03-23T12:06:04;3.60;;;2.03;;
14984;SDS011;7588;62.368;25.902;2023-03-23T12:16:49;8.70;;;2.03;;
14984;SDS011;7588;62.368;25.902;2023-03-23T12:31:10;2.80;;;1.43;;
14984;SDS011;7588;62.368;25.902;2023-03-23T12:33:53;1.57;;;1.47;;
14984;SDS011;7588;62.368;25.902;2023-03-23T12:37:23;1.40;;;1.30;;
14984;SDS011;7588;62.368;25.902;2023-03-23T12:47:46;1.40;;;1.30;;
14984;SDS011;7588;62.368;25.902;2023-03-23T12:50:36;2.30;;;1.20;;
14984;SDS011;7588;62.368;25.902;2023-03-23T12:53:11;1.50;;;1.20;;
14984;SDS011;7588;62.368;25.902;2023-03-23T12:58:34;1.50;;;1.40;;
14984;SDS011;7588;62.368;25.902;2023-03-23T13:01:10;1.83;;;1.50;;
14984;SDS011;7588;62.368;25.902;2023-03-23T13:06:38;1.47;;;1.37;;
14984;SDS011;7588;62.368;25.902;2023-03-23T13:11:58;1.60;;;1.30;;
14984;SDS011;7588;62.368;25.902;2023-03-23T13:22:42;1.23;;;1.23;;
14984;SDS011;7588;62.368;25.902;2023-03-23T13:25:15;1.00;;;1.00;;
14984;SDS011;7588;62.368;25.902;2023-03-23T13:28:12;1.20;;;1.20;;
14984;SDS011;7588;62.368;25.902;2023-03-23T13:30:57;1.20;;;1.20;;
14984;SDS011;7588;62.368;25.902;2023-03-23T13:33:29;1.57;;;1.57;;
14984;SDS011;7588;62.368;25.902;2023-03-23T13:35:56;1.00;;;1.00;;
14984;SDS011;7588;62.368;25.902;2023-03-23T13:38:31;1.10;;;1.10;;
14984;SDS011;7588;62.368;25.902;2023-03-23T13:40:57;1.07;;;1.07;;
14984;SDS011;7588;62.368;25.902;2023-03-23T13:43:32;1.30;;;1.30;;
14984;SDS011;7588;62.368;25.902;2023-03-23T13:46:07;1.43;;;1.43;;
14984;SDS011;7588;62.368;25.902;2023-03-23T13:48:43;1.20;;;1.20;;
14984;SDS011;7588;62.368;25.902;2023-03-23T13:56:59;1.03;;;1.03;;
14984;SDS011;7588;62.368;25.902;2023-03-23T14:01:53;1.30;;;1.20;;
14984;SDS011;7588;62.368;25.902;2023-03-23T14:04:20;1.20;;;1.20;;
14984;SDS011;7588;62.368;25.902;2023-03-23T14:06:48;1.20;;;1.20;;
14984;SDS011;7588;62.368;25.902;2023-03-23T14:09:29;1.03;;;1.03;;
14984;SDS011;7588;62.368;25.902;2023-03-23T14:12:00;1.40;;;1.40;;
14984;SDS011;7588;62.368;25.902;2023-03-23T14:14:44;1.10;;;1.10;;
14984;SDS011;7588;62.368;25.902;2023-03-23T14:17:25;1.07;;;1.07;;
14984;SDS011;7588;62.368;25.902;2023-03-23T14:19:52;1.07;;;1.07;;
14984;SDS011;7588;62.368;25.902;2023-03-23T14:22:25;1.37;;;1.37;;
14984;SDS011;7588;62.368;25.902;2023-03-23T14:24:59;1.20;;;1.20;;
14984;SDS011;7588;62.368;25.902;2023-03-23T14:27:33;1.20;;;1.20;;
14984;SDS011;7588;62.368;25.902;2023-03-23T14:30:04;1.73;;;1.63;;
14984;SDS011;7588;62.368;25.902;2023-03-23T14:32:32;1.10;;;1.10;;
14984;SDS011;7588;62.368;25.902;2023-03-23T14:34:58;1.27;;;1.27;;
14984;SDS011;7588;62.368;25.902;2023-03-23T14:37:30;1.20;;;1.20;;
14984;SDS011;7588;62.368;25.902;2023-03-23T14:39:57;1.13;;;1.13;;
14984;SDS011;7588;62.368;25.902;2023-03-23T14:42:28;1.20;;;1.20;;
14984;SDS011;7588;62.368;25.902;2023-03-23T14:44:57;1.20;;;1.20;;
14984;SDS011;7588;62.368;25.902;2023-03-23T14:47:32;1.40;;;1.40;;
14984;SDS011;7588;62.368;25.902;2023-03-23T14:50:01;1.20;;;1.20;;
14984;SDS011;7588;62.368;25.902;2023-03-23T14:52:33;1.20;;;1.20;;
14984;SDS011;7588;62.368;25.902;2023-03-23T14:55:14;1.30;;;1.30;;
14984;SDS011;7588;62.368;25.902;2023-03-23T14:57:46;1.30;;;1.20;;
14984;SDS011;7588;62.368;25.902;2023-03-23T15:00:16;1.30;;;1.30;;
14984;SDS011;7588;62.368;25.902;2023-03-23T15:02:53;1.30;;;1.30;;
14984;SDS011;7588;62.368;25.902;2023-03-23T15:05:34;1.60;;;1.60;;
14984;SDS011;7588;62.368;25.902;2023-03-23T15:08:05;1.80;;;1.70;;
14984;SDS011;7588;62.368;25.902;2023-03-23T15:10:36;1.63;;;1.53;;
14984;SDS011;7588;62.368;25.902;2023-03-23T15:13:02;2.17;;;2.07;;
14984;SDS011;7588;62.368;25.902;2023-03-23T15:15:32;2.13;;;2.03;;
14984;SDS011;7588;62.368;25.902;2023-03-23T15:17:59;2.33;;;2.23;;
14984;SDS011;7588;62.368;25.902;2023-03-23T15:20:27;2.50;;;2.40;;
14984;SDS011;7588;62.368;25.902;2023-03-23T15:22:55;2.70;;;2.60;;
14984;SDS011;7588;62.368;25.902;2023-03-23T15:25:22;3.07;;;2.90;;
14984;SDS011;7588;62.368;25.902;2023-03-23T15:27:55;2.90;;;2.70;;
14984;SDS011;7588;62.368;25.902;2023-03-23T15:32:49;3.20;;;3.00;;
14984;SDS011;7588;62.368;25.902;2023-03-23T15:35:21;3.03;;;2.83;;
14984;SDS011;7588;62.368;25.902;2023-03-23T15:37:49;3.13;;;2.93;;
14984;SDS011;7588;62.368;25.902;2023-03-23T15:40:27;3.40;;;3.20;;
14984;SDS011;7588;62.368;25.902;2023-03-23T15:48:44;3.10;;;2.90;;
14984;SDS011;7588;62.368;25.902;2023-03-23T15:51:12;3.33;;;3.13;;
14984;SDS011;7588;62.368;25.902;2023-03-23T15:53:39;3.40;;;3.20;;
14984;SDS011;7588;62.368;25.902;2023-03-23T15:56:06;3.20;;;3.00;;
14984;SDS011;7588;62.368;25.902;2023-03-23T15:58:34;3.40;;;3.20;;
14984;SDS011;7588;62.368;25.902;2023-03-23T16:01:03;3.17;;;2.97;;
14984;SDS011;7588;62.368;25.902;2023-03-23T16:03:42;3.67;;;3.47;;
14984;SDS011;7588;62.368;25.902;2023-03-23T16:06:19;3.33;;;3.13;;
14984;SDS011;7588;62.368;25.902;2023-03-23T16:08:47;3.70;;;3.50;;
14984;SDS011;7588;62.368;25.902;2023-03-23T16:11:14;3.60;;;3.40;;
14984;SDS011;7588;62.368;25.902;2023-03-23T16:13:41;3.60;;;3.30;;
14984;SDS011;7588;62.368;25.902;2023-03-23T16:16:17;3.80;;;3.50;;
14984;SDS011;7588;62.368;25.902;2023-03-23T16:18:46;3.70;;;3.40;;
14984;SDS011;7588;62.368;25.902;2023-03-23T16:21:12;3.53;;;3.33;;
14984;SDS011;7588;62.368;25.902;2023-03-23T16:23:37;4.30;;;4.00;;
14984;SDS011;7588;62.368;25.902;2023-03-23T16:26:05;3.70;;;3.50;;
14984;SDS011;7588;62.368;25.902;2023-03-23T16:28:31;4.60;;;4.20;;
14984;SDS011;7588;62.368;25.902;2023-03-23T16:30:56;4.13;;;3.83;;
14984;SDS011;7588;62.368;25.902;2023-03-23T16:33:22;3.80;;;3.60;;
14984;SDS011;7588;62.368;25.902;2023-03-23T16:35:48;6.10;;;5.27;;
14984;SDS011;7588;62.368;25.902;2023-03-23T16:38:14;5.00;;;4.43;;
14984;SDS011;7588;62.368;25.902;2023-03-23T16:40:41;4.20;;;3.90;;
14984;SDS011;7588;62.368;25.902;2023-03-23T16:43:08;4.40;;;4.07;;
14984;SDS011;7588;62.368;25.902;2023-03-23T16:45:39;3.33;;;3.13;;
14984;SDS011;7588;62.368;25.902;2023-03-23T16:48:06;4.00;;;3.70;;
14984;SDS011;7588;62.368;25.902;2023-03-23T16:50:33;3.57;;;3.33;;
14984;SDS011;7588;62.368;25.902;2023-03-23T16:53:00;3.97;;;3.67;;
14984;SDS011;7588;62.368;25.902;2023-03-23T16:55:26;3.77;;;3.53;;
14984;SDS011;7588;62.368;25.902;2023-03-23T16:57:53;4.10;;;3.80;;
14984;SDS011;7588;62.368;25.902;2023-03-23T17:00:19;3.80;;;3.60;;
14984;SDS011;7588;62.368;25.902;2023-03-23T17:02:46;3.73;;;3.43;;
14984;SDS011;7588;62.368;25.902;2023-03-23T17:05:16;4.23;;;3.90;;
14984;SDS011;7588;62.368;25.902;2023-03-23T17:07:46;3.70;;;3.50;;
14984;SDS011;7588;62.368;25.902;2023-03-23T17:10:13;3.93;;;3.63;;
14984;SDS011;7588;62.368;25.902;2023-03-23T17:12:40;3.97;;;3.77;;
14984;SDS011;7588;62.368;25.902;2023-03-23T17:15:06;4.23;;;3.83;;
14984;SDS011;7588;62.368;25.902;2023-03-23T17:17:33;3.80;;;3.50;;
14984;SDS011;7588;62.368;25.902;2023-03-23T17:19:59;3.93;;;3.63;;